sensor_id;sensor_type;location;lat;lon;timestamp;P1;durP1;ratioP1;P2;durP2;ratioP2
79640;SDS011;69115;49.904;14.390;2023-05-15T00:00:55;18.88;;;12.45;;
79640;SDS011;69115;49.904;14.390;2023-05-15T00:03:21;18.90;;;13.73;;
79640;SDS011;69115;49.904;14.390;2023-05-15T00:05:46;19.95;;;13.10;;
79640;SDS011;69115;49.904;14.390;2023-05-15T00:08:11;17.42;;;12.52;;
79640;SDS011;69115;49.904;14.390;2023-05-15T00:10:37;16.88;;;12.50;;
79640;SDS011;69115;49.904;14.390;2023-05-15T00:13:02;17.10;;;12.55;;
79640;SDS011;69115;49.904;14.390;2023-05-15T00:15:28;16.35;;;11.45;;
79640;SDS011;69115;49.904;14.390;2023-05-15T00:17:53;18.05;;;12.50;;
79640;SDS011;69115;49.904;14.390;2023-05-15T00:20:19;17.67;;;12.02;;
79640;SDS011;69115;49.904;14.390;2023-05-15T00:22:44;17.15;;;12.32;;
79640;SDS011;69115;49.904;14.390;2023-05-15T00:25:10;15.75;;;11.02;;
79640;SDS011;69115;49.904;14.390;2023-05-15T00:27:35;15.63;;;10.85;;
79640;SDS011;69115;49.904;14.390;2023-05-15T00:30:01;18.90;;;11.75;;
79640;SDS011;69115;49.904;14.390;2023-05-15T00:32:26;17.45;;;11.18;;
79640;SDS011;69115;49.904;14.390;2023-05-15T00:34:52;14.07;;;10.65;;
79640;SDS011;69115;49.904;14.390;2023-05-15T00:37:17;11.25;;;8.40;;
79640;SDS011;69115;49.904;14.390;2023-05-15T00:39:42;13.07;;;9.18;;
79640;SDS011;69115;49.904;14.390;2023-05-15T00:42:08;12.43;;;8.15;;
79640;SDS011;69115;49.904;14.390;2023-05-15T00:44:34;10.05;;;7.50;;
79640;SDS011;69115;49.904;14.390;2023-05-15T00:47:00;8.90;;;6.63;;
79640;SDS011;69115;49.904;14.390;2023-05-15T00:49:28;12.00;;;7.70;;
79640;SDS011;69115;49.904;14.390;2023-05-15T00:51:54;10.63;;;7.70;;
79640;SDS011;69115;49.904;14.390;2023-05-15T00:54:21;13.20;;;7.47;;
79640;SDS011;69115;49.904;14.390;2023-05-15T00:56:46;11.93;;;8.63;;
79640;SDS011;69115;49.904;14.390;2023-05-15T00:59:12;12.23;;;8.27;;
79640;SDS011;69115;49.904;14.390;2023-05-15T01:01:37;11.88;;;8.88;;
79640;SDS011;69115;49.904;14.390;2023-05-15T01:04:03;11.68;;;7.97;;
79640;SDS011;69115;49.904;14.390;2023-05-15T01:06:29;13.85;;;9.43;;
79640;SDS011;69115;49.904;14.390;2023-05-15T01:08:55;11.80;;;8.65;;
79640;SDS011;69115;49.904;14.390;2023-05-15T01:11:22;14.45;;;9.30;;
79640;SDS011;69115;49.904;14.390;2023-05-15T01:13:49;13.45;;;8.75;;
79640;SDS011;69115;49.904;14.390;2023-05-15T01:16:15;12.80;;;8.55;;
79640;SDS011;69115;49.904;14.390;2023-05-15T01:18:40;11.73;;;8.90;;
79640;SDS011;69115;49.904;14.390;2023-05-15T01:29:23;13.15;;;9.30;;
79640;SDS011;69115;49.904;14.390;2023-05-15T01:31:54;11.77;;;8.88;;
79640;SDS011;69115;49.904;14.390;2023-05-15T01:34:22;11.38;;;8.80;;
79640;SDS011;69115;49.904;14.390;2023-05-15T01:36:55;12.38;;;7.93;;
79640;SDS011;69115;49.904;14.390;2023-05-15T01:39:21;13.52;;;9.48;;
79640;SDS011;69115;49.904;14.390;2023-05-15T01:41:50;10.52;;;7.47;;
79640;SDS011;69115;49.904;14.390;2023-05-15T01:44:29;12.07;;;7.70;;
79640;SDS011;69115;49.904;14.390;2023-05-15T01:46:58;10.88;;;8.20;;
79640;SDS011;69115;49.904;14.390;2023-05-15T01:49:27;12.35;;;8.77;;
79640;SDS011;69115;49.904;14.390;2023-05-15T01:51:56;15.07;;;9.77;;
79640;SDS011;69115;49.904;14.390;2023-05-15T01:54:24;12.77;;;9.18;;
79640;SDS011;69115;49.904;14.390;2023-05-15T01:56:51;12.98;;;8.95;;
79640;SDS011;69115;49.904;14.390;2023-05-15T01:59:16;12.85;;;9.02;;
79640;SDS011;69115;49.904;14.390;2023-05-15T02:01:43;12.52;;;8.68;;
79640;SDS011;69115;49.904;14.390;2023-05-15T02:04:09;12.63;;;9.20;;
79640;SDS011;69115;49.904;14.390;2023-05-15T02:06:35;14.43;;;9.32;;
79640;SDS011;69115;49.904;14.390;2023-05-15T02:09:01;11.93;;;8.23;;
79640;SDS011;69115;49.904;14.390;2023-05-15T02:11:27;12.77;;;9.32;;
79640;SDS011;69115;49.904;14.390;2023-05-15T02:13:53;9.25;;;6.55;;
79640;SDS011;69115;49.904;14.390;2023-05-15T02:16:21;12.35;;;9.48;;
79640;SDS011;69115;49.904;14.390;2023-05-15T02:18:46;14.02;;;8.82;;
79640;SDS011;69115;49.904;14.390;2023-05-15T02:21:12;12.05;;;8.80;;
79640;SDS011;69115;49.904;14.390;2023-05-15T02:23:38;11.45;;;8.35;;
79640;SDS011;69115;49.904;14.390;2023-05-15T02:26:50;13.00;;;8.13;;
79640;SDS011;69115;49.904;14.390;2023-05-15T02:34:27;12.07;;;8.32;;
79640;SDS011;69115;49.904;14.390;2023-05-15T02:36:56;12.35;;;8.23;;
79640;SDS011;69115;49.904;14.390;2023-05-15T02:39:22;12.02;;;8.15;;
79640;SDS011;69115;49.904;14.390;2023-05-15T02:41:49;11.38;;;7.60;;
79640;SDS011;69115;49.904;14.390;2023-05-15T02:44:16;13.70;;;7.25;;
79640;SDS011;69115;49.904;14.390;2023-05-15T02:46:42;9.75;;;7.22;;
79640;SDS011;69115;49.904;14.390;2023-05-15T02:49:07;13.38;;;7.75;;
79640;SDS011;69115;49.904;14.390;2023-05-15T02:51:32;11.70;;;7.43;;
79640;SDS011;69115;49.904;14.390;2023-05-15T02:54:01;9.65;;;6.53;;
79640;SDS011;69115;49.904;14.390;2023-05-15T02:56:26;8.85;;;6.43;;
79640;SDS011;69115;49.904;14.390;2023-05-15T02:58:52;10.80;;;6.60;;
79640;SDS011;69115;49.904;14.390;2023-05-15T03:01:17;8.65;;;5.93;;
79640;SDS011;69115;49.904;14.390;2023-05-15T03:03:43;10.18;;;5.97;;
79640;SDS011;69115;49.904;14.390;2023-05-15T03:06:08;8.27;;;6.20;;
79640;SDS011;69115;49.904;14.390;2023-05-15T03:08:33;8.68;;;5.88;;
79640;SDS011;69115;49.904;14.390;2023-05-15T03:10:59;8.02;;;5.70;;
79640;SDS011;69115;49.904;14.390;2023-05-15T03:13:24;8.10;;;5.75;;
79640;SDS011;69115;49.904;14.390;2023-05-15T03:15:50;7.35;;;5.32;;
79640;SDS011;69115;49.904;14.390;2023-05-15T03:18:16;7.95;;;5.50;;
79640;SDS011;69115;49.904;14.390;2023-05-15T03:20:43;7.35;;;5.65;;
79640;SDS011;69115;49.904;14.390;2023-05-15T03:23:08;9.20;;;6.05;;
79640;SDS011;69115;49.904;14.390;2023-05-15T03:25:34;7.93;;;5.50;;
79640;SDS011;69115;49.904;14.390;2023-05-15T03:27:59;7.28;;;4.97;;
79640;SDS011;69115;49.904;14.390;2023-05-15T03:30:24;11.07;;;6.20;;
79640;SDS011;69115;49.904;14.390;2023-05-15T03:32:50;8.80;;;6.57;;
79640;SDS011;69115;49.904;14.390;2023-05-15T03:35:15;6.95;;;5.38;;
79640;SDS011;69115;49.904;14.390;2023-05-15T03:37:41;8.20;;;5.53;;
79640;SDS011;69115;49.904;14.390;2023-05-15T03:40:06;7.22;;;4.75;;
79640;SDS011;69115;49.904;14.390;2023-05-15T03:42:32;6.18;;;4.53;;
79640;SDS011;69115;49.904;14.390;2023-05-15T03:44:58;7.18;;;5.50;;
79640;SDS011;69115;49.904;14.390;2023-05-15T03:47:23;7.38;;;5.55;;
79640;SDS011;69115;49.904;14.390;2023-05-15T03:49:48;7.30;;;5.18;;
79640;SDS011;69115;49.904;14.390;2023-05-15T03:52:14;8.60;;;6.18;;
79640;SDS011;69115;49.904;14.390;2023-05-15T03:54:39;8.70;;;5.88;;
79640;SDS011;69115;49.904;14.390;2023-05-15T03:57:05;8.75;;;6.00;;
79640;SDS011;69115;49.904;14.390;2023-05-15T03:59:31;8.98;;;6.13;;
79640;SDS011;69115;49.904;14.390;2023-05-15T04:01:57;9.27;;;6.25;;
79640;SDS011;69115;49.904;14.390;2023-05-15T04:04:22;8.02;;;5.68;;
79640;SDS011;69115;49.904;14.390;2023-05-15T04:06:48;7.60;;;5.55;;
79640;SDS011;69115;49.904;14.390;2023-05-15T04:09:14;7.55;;;5.95;;
79640;SDS011;69115;49.904;14.390;2023-05-15T04:11:39;13.07;;;6.78;;
79640;SDS011;69115;49.904;14.390;2023-05-15T04:14:05;9.82;;;6.70;;
79640;SDS011;69115;49.904;14.390;2023-05-15T04:16:30;9.35;;;6.70;;
79640;SDS011;69115;49.904;14.390;2023-05-15T04:18:55;10.85;;;6.32;;
79640;SDS011;69115;49.904;14.390;2023-05-15T04:21:21;9.93;;;6.63;;
79640;SDS011;69115;49.904;14.390;2023-05-15T04:23:46;11.35;;;6.43;;
79640;SDS011;69115;49.904;14.390;2023-05-15T04:26:11;8.18;;;6.28;;
79640;SDS011;69115;49.904;14.390;2023-05-15T04:28:37;10.32;;;6.03;;
79640;SDS011;69115;49.904;14.390;2023-05-15T04:31:02;10.00;;;7.30;;
79640;SDS011;69115;49.904;14.390;2023-05-15T04:33:28;10.48;;;6.75;;
79640;SDS011;69115;49.904;14.390;2023-05-15T04:35:53;8.57;;;6.78;;
79640;SDS011;69115;49.904;14.390;2023-05-15T04:38:18;14.48;;;7.90;;
79640;SDS011;69115;49.904;14.390;2023-05-15T04:40:44;9.85;;;7.00;;
79640;SDS011;69115;49.904;14.390;2023-05-15T04:43:09;8.82;;;6.20;;
79640;SDS011;69115;49.904;14.390;2023-05-15T04:45:35;9.07;;;6.45;;
79640;SDS011;69115;49.904;14.390;2023-05-15T04:48:00;9.07;;;6.75;;
79640;SDS011;69115;49.904;14.390;2023-05-15T04:50:26;10.10;;;7.47;;
79640;SDS011;69115;49.904;14.390;2023-05-15T04:52:51;11.18;;;6.88;;
79640;SDS011;69115;49.904;14.390;2023-05-15T04:55:16;11.57;;;6.80;;
79640;SDS011;69115;49.904;14.390;2023-05-15T04:57:42;10.70;;;6.35;;
79640;SDS011;69115;49.904;14.390;2023-05-15T05:00:07;12.57;;;8.25;;
79640;SDS011;69115;49.904;14.390;2023-05-15T05:02:36;9.82;;;7.18;;
79640;SDS011;69115;49.904;14.390;2023-05-15T05:05:03;10.10;;;6.50;;
79640;SDS011;69115;49.904;14.390;2023-05-15T05:07:30;8.32;;;6.10;;
79640;SDS011;69115;49.904;14.390;2023-05-15T05:09:55;11.40;;;7.13;;
79640;SDS011;69115;49.904;14.390;2023-05-15T05:12:20;11.15;;;7.38;;
79640;SDS011;69115;49.904;14.390;2023-05-15T05:14:46;9.65;;;7.13;;
79640;SDS011;69115;49.904;14.390;2023-05-15T05:17:11;10.95;;;8.65;;
79640;SDS011;69115;49.904;14.390;2023-05-15T05:19:37;14.43;;;8.07;;
79640;SDS011;69115;49.904;14.390;2023-05-15T05:22:05;10.95;;;7.65;;
79640;SDS011;69115;49.904;14.390;2023-05-15T05:24:31;12.88;;;7.93;;
79640;SDS011;69115;49.904;14.390;2023-05-15T05:26:57;10.40;;;7.47;;
79640;SDS011;69115;49.904;14.390;2023-05-15T05:29:23;10.98;;;6.85;;
79640;SDS011;69115;49.904;14.390;2023-05-15T05:31:48;11.80;;;8.02;;
79640;SDS011;69115;49.904;14.390;2023-05-15T05:34:14;10.88;;;7.80;;
79640;SDS011;69115;49.904;14.390;2023-05-15T05:36:39;10.40;;;7.40;;
79640;SDS011;69115;49.904;14.390;2023-05-15T05:39:05;8.73;;;6.40;;
79640;SDS011;69115;49.904;14.390;2023-05-15T05:41:30;8.50;;;6.13;;
79640;SDS011;69115;49.904;14.390;2023-05-15T05:43:56;9.43;;;6.82;;
79640;SDS011;69115;49.904;14.390;2023-05-15T05:46:21;10.70;;;7.30;;
79640;SDS011;69115;49.904;14.390;2023-05-15T05:48:46;10.00;;;6.55;;
79640;SDS011;69115;49.904;14.390;2023-05-15T05:51:12;9.05;;;6.10;;
79640;SDS011;69115;49.904;14.390;2023-05-15T05:53:37;9.70;;;6.30;;
79640;SDS011;69115;49.904;14.390;2023-05-15T05:56:02;8.30;;;6.03;;
79640;SDS011;69115;49.904;14.390;2023-05-15T05:58:28;6.85;;;5.40;;
79640;SDS011;69115;49.904;14.390;2023-05-15T06:00:53;7.95;;;5.78;;
79640;SDS011;69115;49.904;14.390;2023-05-15T06:03:19;8.75;;;5.60;;
79640;SDS011;69115;49.904;14.390;2023-05-15T06:05:44;9.20;;;5.65;;
79640;SDS011;69115;49.904;14.390;2023-05-15T06:08:10;10.20;;;5.78;;
79640;SDS011;69115;49.904;14.390;2023-05-15T06:10:36;7.93;;;5.85;;
79640;SDS011;69115;49.904;14.390;2023-05-15T06:13:01;9.18;;;6.25;;
79640;SDS011;69115;49.904;14.390;2023-05-15T06:15:26;9.73;;;6.30;;
79640;SDS011;69115;49.904;14.390;2023-05-15T06:17:52;7.72;;;5.88;;
79640;SDS011;69115;49.904;14.390;2023-05-15T06:20:17;9.90;;;5.95;;
79640;SDS011;69115;49.904;14.390;2023-05-15T06:22:43;9.35;;;6.05;;
79640;SDS011;69115;49.904;14.390;2023-05-15T06:25:08;8.65;;;6.32;;
79640;SDS011;69115;49.904;14.390;2023-05-15T06:27:39;7.50;;;5.65;;
79640;SDS011;69115;49.904;14.390;2023-05-15T06:30:07;8.50;;;6.65;;
79640;SDS011;69115;49.904;14.390;2023-05-15T06:32:33;7.38;;;5.40;;
79640;SDS011;69115;49.904;14.390;2023-05-15T06:34:58;7.97;;;6.20;;
79640;SDS011;69115;49.904;14.390;2023-05-15T06:37:24;8.65;;;6.97;;
79640;SDS011;69115;49.904;14.390;2023-05-15T06:39:49;12.60;;;7.85;;
79640;SDS011;69115;49.904;14.390;2023-05-15T06:42:15;12.48;;;8.20;;
79640;SDS011;69115;49.904;14.390;2023-05-15T06:44:40;13.45;;;8.02;;
79640;SDS011;69115;49.904;14.390;2023-05-15T06:47:06;12.68;;;7.60;;
79640;SDS011;69115;49.904;14.390;2023-05-15T06:49:31;11.75;;;8.07;;
79640;SDS011;69115;49.904;14.390;2023-05-15T06:51:56;10.57;;;6.78;;
79640;SDS011;69115;49.904;14.390;2023-05-15T06:54:22;11.23;;;6.55;;
79640;SDS011;69115;49.904;14.390;2023-05-15T06:56:47;11.13;;;7.45;;
79640;SDS011;69115;49.904;14.390;2023-05-15T06:59:13;12.98;;;7.80;;
79640;SDS011;69115;49.904;14.390;2023-05-15T07:01:38;11.25;;;8.32;;
79640;SDS011;69115;49.904;14.390;2023-05-15T07:04:04;9.77;;;6.93;;
79640;SDS011;69115;49.904;14.390;2023-05-15T07:06:29;9.98;;;7.60;;
79640;SDS011;69115;49.904;14.390;2023-05-15T07:08:58;9.75;;;6.88;;
79640;SDS011;69115;49.904;14.390;2023-05-15T07:11:24;10.05;;;6.90;;
79640;SDS011;69115;49.904;14.390;2023-05-15T07:13:50;12.55;;;7.10;;
79640;SDS011;69115;49.904;14.390;2023-05-15T07:16:19;9.95;;;7.05;;
79640;SDS011;69115;49.904;14.390;2023-05-15T07:18:44;10.02;;;6.97;;
79640;SDS011;69115;49.904;14.390;2023-05-15T07:21:10;10.65;;;8.13;;
79640;SDS011;69115;49.904;14.390;2023-05-15T07:23:35;11.63;;;8.40;;
79640;SDS011;69115;49.904;14.390;2023-05-15T07:26:01;10.63;;;7.47;;
79640;SDS011;69115;49.904;14.390;2023-05-15T07:28:26;9.88;;;7.75;;
79640;SDS011;69115;49.904;14.390;2023-05-15T07:30:51;9.18;;;6.90;;
79640;SDS011;69115;49.904;14.390;2023-05-15T07:33:17;8.65;;;6.80;;
79640;SDS011;69115;49.904;14.390;2023-05-15T07:35:42;9.25;;;7.28;;
79640;SDS011;69115;49.904;14.390;2023-05-15T07:38:08;10.75;;;7.60;;
79640;SDS011;69115;49.904;14.390;2023-05-15T07:40:33;10.85;;;8.00;;
79640;SDS011;69115;49.904;14.390;2023-05-15T07:42:58;12.32;;;9.40;;
79640;SDS011;69115;49.904;14.390;2023-05-15T07:45:24;11.88;;;9.07;;
79640;SDS011;69115;49.904;14.390;2023-05-15T07:47:49;11.77;;;8.98;;
79640;SDS011;69115;49.904;14.390;2023-05-15T07:50:15;9.82;;;7.25;;
79640;SDS011;69115;49.904;14.390;2023-05-15T07:52:41;12.43;;;6.82;;
79640;SDS011;69115;49.904;14.390;2023-05-15T07:55:07;9.70;;;7.13;;
79640;SDS011;69115;49.904;14.390;2023-05-15T07:57:33;10.25;;;6.93;;
79640;SDS011;69115;49.904;14.390;2023-05-15T07:59:59;9.95;;;7.95;;
79640;SDS011;69115;49.904;14.390;2023-05-15T08:02:26;10.80;;;8.07;;
79640;SDS011;69115;49.904;14.390;2023-05-15T08:04:51;9.45;;;7.32;;
79640;SDS011;69115;49.904;14.390;2023-05-15T08:07:17;11.02;;;8.02;;
79640;SDS011;69115;49.904;14.390;2023-05-15T08:09:42;11.00;;;8.60;;
79640;SDS011;69115;49.904;14.390;2023-05-15T08:12:17;10.07;;;7.90;;
79640;SDS011;69115;49.904;14.390;2023-05-15T08:14:54;11.57;;;8.32;;
79640;SDS011;69115;49.904;14.390;2023-05-15T08:17:20;9.20;;;6.75;;
79640;SDS011;69115;49.904;14.390;2023-05-15T08:19:46;9.82;;;6.97;;
79640;SDS011;69115;49.904;14.390;2023-05-15T08:22:11;10.65;;;7.78;;
79640;SDS011;69115;49.904;14.390;2023-05-15T08:24:38;9.45;;;7.55;;
79640;SDS011;69115;49.904;14.390;2023-05-15T08:27:04;10.15;;;8.20;;
79640;SDS011;69115;49.904;14.390;2023-05-15T08:29:30;11.45;;;8.32;;
79640;SDS011;69115;49.904;14.390;2023-05-15T08:31:56;10.73;;;7.38;;
79640;SDS011;69115;49.904;14.390;2023-05-15T08:34:22;8.77;;;6.32;;
79640;SDS011;69115;49.904;14.390;2023-05-15T08:36:47;8.63;;;6.78;;
79640;SDS011;69115;49.904;14.390;2023-05-15T08:39:12;11.10;;;7.03;;
79640;SDS011;69115;49.904;14.390;2023-05-15T08:44:23;9.75;;;6.45;;
79640;SDS011;69115;49.904;14.390;2023-05-15T08:46:48;9.32;;;6.82;;
79640;SDS011;69115;49.904;14.390;2023-05-15T08:52:06;8.63;;;6.35;;
79640;SDS011;69115;49.904;14.390;2023-05-15T08:54:31;6.68;;;5.32;;
79640;SDS011;69115;49.904;14.390;2023-05-15T08:56:57;9.82;;;5.55;;
79640;SDS011;69115;49.904;14.390;2023-05-15T08:59:23;8.75;;;6.15;;
79640;SDS011;69115;49.904;14.390;2023-05-15T09:01:49;8.07;;;6.55;;
79640;SDS011;69115;49.904;14.390;2023-05-15T09:04:14;7.28;;;5.72;;
79640;SDS011;69115;49.904;14.390;2023-05-15T09:06:40;7.30;;;5.80;;
79640;SDS011;69115;49.904;14.390;2023-05-15T09:09:05;7.97;;;6.35;;
79640;SDS011;69115;49.904;14.390;2023-05-15T09:11:32;7.47;;;6.03;;
79640;SDS011;69115;49.904;14.390;2023-05-15T09:13:59;8.63;;;5.97;;
79640;SDS011;69115;49.904;14.390;2023-05-15T09:16:25;7.40;;;5.50;;
79640;SDS011;69115;49.904;14.390;2023-05-15T09:18:51;7.63;;;6.00;;
79640;SDS011;69115;49.904;14.390;2023-05-15T09:24:36;7.30;;;5.75;;
79640;SDS011;69115;49.904;14.390;2023-05-15T09:26:45;8.05;;;5.78;;
79640;SDS011;69115;49.904;14.390;2023-05-15T09:29:14;7.40;;;6.03;;
79640;SDS011;69115;49.904;14.390;2023-05-15T09:31:40;7.32;;;5.32;;
79640;SDS011;69115;49.904;14.390;2023-05-15T09:34:05;7.28;;;5.80;;
79640;SDS011;69115;49.904;14.390;2023-05-15T09:36:33;7.32;;;5.32;;
79640;SDS011;69115;49.904;14.390;2023-05-15T09:38:59;7.07;;;5.32;;
79640;SDS011;69115;49.904;14.390;2023-05-15T09:41:25;6.63;;;5.30;;
79640;SDS011;69115;49.904;14.390;2023-05-15T09:43:51;6.15;;;5.15;;
79640;SDS011;69115;49.904;14.390;2023-05-15T09:46:20;7.07;;;5.25;;
79640;SDS011;69115;49.904;14.390;2023-05-15T09:48:46;7.45;;;5.95;;
79640;SDS011;69115;49.904;14.390;2023-05-15T09:51:15;6.80;;;5.38;;
79640;SDS011;69115;49.904;14.390;2023-05-15T09:53:42;6.38;;;5.15;;
79640;SDS011;69115;49.904;14.390;2023-05-15T09:56:11;7.18;;;5.15;;
79640;SDS011;69115;49.904;14.390;2023-05-15T09:58:36;6.43;;;5.43;;
79640;SDS011;69115;49.904;14.390;2023-05-15T10:01:02;8.07;;;5.53;;
79640;SDS011;69115;49.904;14.390;2023-05-15T10:03:28;6.90;;;5.25;;
79640;SDS011;69115;49.904;14.390;2023-05-15T10:05:59;10.77;;;5.75;;
79640;SDS011;69115;49.904;14.390;2023-05-15T10:08:25;7.45;;;5.45;;
79640;SDS011;69115;49.904;14.390;2023-05-15T10:10:52;6.75;;;5.13;;
79640;SDS011;69115;49.904;14.390;2023-05-15T10:13:18;6.82;;;5.55;;
79640;SDS011;69115;49.904;14.390;2023-05-15T10:15:44;7.03;;;5.30;;
79640;SDS011;69115;49.904;14.390;2023-05-15T10:18:13;6.30;;;5.15;;
79640;SDS011;69115;49.904;14.390;2023-05-15T10:20:41;7.35;;;5.78;;
79640;SDS011;69115;49.904;14.390;2023-05-15T10:23:06;8.18;;;6.30;;
79640;SDS011;69115;49.904;14.390;2023-05-15T10:28:26;6.78;;;5.38;;
79640;SDS011;69115;49.904;14.390;2023-05-15T10:30:53;7.05;;;5.38;;
79640;SDS011;69115;49.904;14.390;2023-05-15T10:33:20;6.00;;;4.80;;
79640;SDS011;69115;49.904;14.390;2023-05-15T10:35:45;6.65;;;5.00;;
79640;SDS011;69115;49.904;14.390;2023-05-15T10:38:12;6.35;;;4.65;;
79640;SDS011;69115;49.904;14.390;2023-05-15T10:40:38;7.15;;;5.45;;
79640;SDS011;69115;49.904;14.390;2023-05-15T10:43:04;5.43;;;4.72;;
79640;SDS011;69115;49.904;14.390;2023-05-15T10:45:30;8.32;;;5.57;;
79640;SDS011;69115;49.904;14.390;2023-05-15T10:47:56;7.43;;;5.28;;
79640;SDS011;69115;49.904;14.390;2023-05-15T10:50:22;7.82;;;4.97;;
79640;SDS011;69115;49.904;14.390;2023-05-15T10:52:49;6.60;;;4.80;;
79640;SDS011;69115;49.904;14.390;2023-05-15T10:55:16;6.30;;;4.70;;
79640;SDS011;69115;49.904;14.390;2023-05-15T10:57:42;7.32;;;5.72;;
79640;SDS011;69115;49.904;14.390;2023-05-15T11:02:47;8.30;;;6.45;;
79640;SDS011;69115;49.904;14.390;2023-05-15T11:05:12;8.48;;;5.63;;
79640;SDS011;69115;49.904;14.390;2023-05-15T11:07:38;6.47;;;5.13;;
79640;SDS011;69115;49.904;14.390;2023-05-15T11:10:49;7.55;;;5.70;;
79640;SDS011;69115;49.904;14.390;2023-05-15T11:12:55;7.90;;;5.45;;
79640;SDS011;69115;49.904;14.390;2023-05-15T11:15:22;8.50;;;5.15;;
79640;SDS011;69115;49.904;14.390;2023-05-15T11:18:04;8.25;;;5.25;;
79640;SDS011;69115;49.904;14.390;2023-05-15T11:23:03;7.93;;;5.68;;
79640;SDS011;69115;49.904;14.390;2023-05-15T11:25:29;6.90;;;5.15;;
79640;SDS011;69115;49.904;14.390;2023-05-15T11:27:57;7.35;;;5.38;;
79640;SDS011;69115;49.904;14.390;2023-05-15T11:30:36;6.88;;;5.10;;
79640;SDS011;69115;49.904;14.390;2023-05-15T11:33:06;6.22;;;5.35;;
79640;SDS011;69115;49.904;14.390;2023-05-15T11:35:33;7.55;;;5.47;;
79640;SDS011;69115;49.904;14.390;2023-05-15T11:38:11;6.88;;;5.05;;
79640;SDS011;69115;49.904;14.390;2023-05-15T11:40:48;5.55;;;4.72;;
79640;SDS011;69115;49.904;14.390;2023-05-15T11:45:55;6.85;;;5.45;;
79640;SDS011;69115;49.904;14.390;2023-05-15T11:48:32;5.63;;;4.80;;
79640;SDS011;69115;49.904;14.390;2023-05-15T11:51:02;6.85;;;5.68;;
79640;SDS011;69115;49.904;14.390;2023-05-15T11:53:29;7.10;;;5.65;;
79640;SDS011;69115;49.904;14.390;2023-05-15T11:55:55;6.15;;;4.95;;
79640;SDS011;69115;49.904;14.390;2023-05-15T11:58:21;5.65;;;5.00;;
79640;SDS011;69115;49.904;14.390;2023-05-15T12:00:48;6.10;;;5.00;;
79640;SDS011;69115;49.904;14.390;2023-05-15T12:05:51;6.28;;;4.78;;
79640;SDS011;69115;49.904;14.390;2023-05-15T12:08:17;9.25;;;5.53;;
79640;SDS011;69115;49.904;14.390;2023-05-15T12:10:45;5.93;;;4.43;;
79640;SDS011;69115;49.904;14.390;2023-05-15T12:13:14;6.68;;;5.20;;
79640;SDS011;69115;49.904;14.390;2023-05-15T12:15:45;5.88;;;4.65;;
79640;SDS011;69115;49.904;14.390;2023-05-15T12:18:11;6.18;;;4.10;;
79640;SDS011;69115;49.904;14.390;2023-05-15T12:20:38;7.15;;;5.25;;
79640;SDS011;69115;49.904;14.390;2023-05-15T12:23:05;6.30;;;4.78;;
79640;SDS011;69115;49.904;14.390;2023-05-15T12:25:34;6.20;;;4.32;;
79640;SDS011;69115;49.904;14.390;2023-05-15T12:28:00;6.15;;;4.70;;
79640;SDS011;69115;49.904;14.390;2023-05-15T12:30:29;6.95;;;4.72;;
79640;SDS011;69115;49.904;14.390;2023-05-15T12:32:59;6.70;;;5.30;;
79640;SDS011;69115;49.904;14.390;2023-05-15T12:35:25;7.15;;;4.88;;
79640;SDS011;69115;49.904;14.390;2023-05-15T12:37:50;6.32;;;4.25;;
79640;SDS011;69115;49.904;14.390;2023-05-15T12:40:18;6.85;;;5.07;;
79640;SDS011;69115;49.904;14.390;2023-05-15T12:42:44;6.07;;;4.55;;
79640;SDS011;69115;49.904;14.390;2023-05-15T12:45:17;5.53;;;4.60;;
79640;SDS011;69115;49.904;14.390;2023-05-15T12:47:43;5.80;;;4.60;;
79640;SDS011;69115;49.904;14.390;2023-05-15T12:50:11;7.13;;;4.82;;
79640;SDS011;69115;49.904;14.390;2023-05-15T12:52:37;6.45;;;4.43;;
79640;SDS011;69115;49.904;14.390;2023-05-15T12:55:04;5.82;;;4.40;;
79640;SDS011;69115;49.904;14.390;2023-05-15T12:57:29;5.55;;;4.00;;
79640;SDS011;69115;49.904;14.390;2023-05-15T12:59:55;5.55;;;4.85;;
79640;SDS011;69115;49.904;14.390;2023-05-15T13:02:20;6.25;;;4.93;;
79640;SDS011;69115;49.904;14.390;2023-05-15T13:04:46;6.88;;;4.75;;
79640;SDS011;69115;49.904;14.390;2023-05-15T13:07:15;5.50;;;4.47;;
79640;SDS011;69115;49.904;14.390;2023-05-15T13:09:41;6.07;;;4.43;;
79640;SDS011;69115;49.904;14.390;2023-05-15T13:12:07;6.35;;;4.72;;
79640;SDS011;69115;49.904;14.390;2023-05-15T13:14:32;6.50;;;5.00;;
79640;SDS011;69115;49.904;14.390;2023-05-15T13:16:59;10.20;;;5.50;;
79640;SDS011;69115;49.904;14.390;2023-05-15T13:19:28;4.63;;;4.18;;
79640;SDS011;69115;49.904;14.390;2023-05-15T13:21:54;5.88;;;4.80;;
79640;SDS011;69115;49.904;14.390;2023-05-15T13:24:20;6.20;;;4.70;;
79640;SDS011;69115;49.904;14.390;2023-05-15T13:26:47;6.18;;;5.03;;
79640;SDS011;69115;49.904;14.390;2023-05-15T13:29:12;8.23;;;4.75;;
79640;SDS011;69115;49.904;14.390;2023-05-15T13:31:38;5.82;;;4.90;;
79640;SDS011;69115;49.904;14.390;2023-05-15T13:34:03;6.03;;;4.90;;
79640;SDS011;69115;49.904;14.390;2023-05-15T13:36:29;8.48;;;5.07;;
79640;SDS011;69115;49.904;14.390;2023-05-15T13:38:55;7.22;;;4.47;;
79640;SDS011;69115;49.904;14.390;2023-05-15T13:41:20;8.60;;;4.57;;
79640;SDS011;69115;49.904;14.390;2023-05-15T13:43:46;5.68;;;5.07;;
79640;SDS011;69115;49.904;14.390;2023-05-15T13:46:13;6.32;;;5.43;;
79640;SDS011;69115;49.904;14.390;2023-05-15T13:48:38;6.60;;;5.00;;
79640;SDS011;69115;49.904;14.390;2023-05-15T13:51:04;6.15;;;4.97;;
79640;SDS011;69115;49.904;14.390;2023-05-15T13:53:30;8.50;;;5.57;;
79640;SDS011;69115;49.904;14.390;2023-05-15T13:55:55;7.20;;;5.00;;
79640;SDS011;69115;49.904;14.390;2023-05-15T13:58:21;9.43;;;5.95;;
79640;SDS011;69115;49.904;14.390;2023-05-15T14:00:47;7.63;;;5.85;;
79640;SDS011;69115;49.904;14.390;2023-05-15T14:03:12;6.72;;;4.97;;
79640;SDS011;69115;49.904;14.390;2023-05-15T14:05:38;6.57;;;5.40;;
79640;SDS011;69115;49.904;14.390;2023-05-15T14:08:03;6.47;;;5.13;;
79640;SDS011;69115;49.904;14.390;2023-05-15T14:10:29;7.15;;;5.95;;
79640;SDS011;69115;49.904;14.390;2023-05-15T14:12:55;10.20;;;6.22;;
79640;SDS011;69115;49.904;14.390;2023-05-15T14:15:20;7.97;;;6.35;;
79640;SDS011;69115;49.904;14.390;2023-05-15T14:17:45;8.48;;;6.40;;
79640;SDS011;69115;49.904;14.390;2023-05-15T14:20:12;6.15;;;5.15;;
79640;SDS011;69115;49.904;14.390;2023-05-15T14:22:38;8.50;;;6.43;;
79640;SDS011;69115;49.904;14.390;2023-05-15T14:25:04;9.90;;;6.55;;
79640;SDS011;69115;49.904;14.390;2023-05-15T14:27:30;8.55;;;6.45;;
79640;SDS011;69115;49.904;14.390;2023-05-15T14:29:55;8.32;;;6.15;;
79640;SDS011;69115;49.904;14.390;2023-05-15T14:32:21;6.60;;;5.88;;
79640;SDS011;69115;49.904;14.390;2023-05-15T14:34:47;7.43;;;5.88;;
79640;SDS011;69115;49.904;14.390;2023-05-15T14:37:13;7.05;;;5.82;;
79640;SDS011;69115;49.904;14.390;2023-05-15T14:39:38;12.35;;;7.07;;
79640;SDS011;69115;49.904;14.390;2023-05-15T14:42:04;8.55;;;6.63;;
79640;SDS011;69115;49.904;14.390;2023-05-15T14:44:30;8.82;;;6.80;;
79640;SDS011;69115;49.904;14.390;2023-05-15T14:47:09;7.47;;;6.38;;
79640;SDS011;69115;49.904;14.390;2023-05-15T14:49:38;14.90;;;7.30;;
79640;SDS011;69115;49.904;14.390;2023-05-15T14:52:05;7.25;;;6.43;;
79640;SDS011;69115;49.904;14.390;2023-05-15T14:54:32;8.90;;;6.40;;
79640;SDS011;69115;49.904;14.390;2023-05-15T14:56:57;7.57;;;6.22;;
79640;SDS011;69115;49.904;14.390;2023-05-15T14:59:23;8.32;;;6.47;;